Time;durP1;ratioP1;P1;durP2;ratioP2;P2;SDS_P1;SDS_P2;PMS_P1;PMS_P2;Temp;Humidity;BMP_temperature;BMP_pressure;BME280_temperature;BME280_humidity;BME280_pressure;Samples;Min_cycle;Max_cycle;Signal;HPM_P1;HPM_P2
2021/06/05 00:00:43;;;;;;;42.28;35.35;;;;;;;15.28;83.17;102138.19;694548;28;972;-64
2021/06/05 00:01:17;;;;;;;42.95;35.80;;;;;;;15.37;84.01;102148.44;694428;28;1778;-64
2021/06/05 00:01:50;;;;;;;41.78;35.60;;;;;;;15.22;83.04;102143.78;694515;28;932;-63
2021/06/05 00:02:18;;;;;;;41.30;35.47;;;;;;;15.18;83.17;102146.56;694918;28;915;-63
2021/06/05 00:02:39;;;;;;;39.85;33.10;;;;;;;15.26;83.16;102145.38;694779;28;868;-64
2021/06/05 00:03:01;;;;;;;40.27;34.77;;;;;;;15.27;83.04;102147.09;694643;28;1003;-65
2021/06/05 00:03:21;;;;;;;38.85;34.22;;;;;;;15.27;82.71;102145.28;695023;28;757;-65
2021/06/05 00:03:42;;;;;;;38.47;34.20;;;;;;;15.32;83.80;102146.00;694506;28;848;-65
2021/06/05 00:04:02;;;;;;;43.57;35.37;;;;;;;15.31;83.50;102146.94;694050;28;911;-65
2021/06/05 00:04:23;;;;;;;42.47;35.42;;;;;;;15.34;84.26;102143.25;693942;28;845;-65
2021/06/05 00:04:46;;;;;;;42.83;35.25;;;;;;;15.31;83.68;102144.28;693687;28;847;-64
2021/06/05 00:05:08;;;;;;;42.05;35.17;;;;;;;15.28;83.27;102143.50;693391;28;910;-64
2021/06/05 00:05:34;;;;;;;41.45;35.03;;;;;;;15.31;83.26;102148.69;693425;28;880;-64
2021/06/05 00:05:58;;;;;;;41.33;35.05;;;;;;;15.31;83.28;102143.38;693473;28;828;-64
2021/06/05 00:06:24;;;;;;;40.10;34.47;;;;;;;15.33;83.47;102152.16;693309;28;868;-64
2021/06/05 00:06:44;;;;;;;41.08;35.17;;;;;;;15.28;83.11;102151.47;693449;28;926;-65
2021/06/05 00:07:05;;;;;;;41.53;34.20;;;;;;;15.29;83.72;102147.91;693505;28;1080;-64
2021/06/05 00:07:28;;;;;;;40.07;34.73;;;;;;;15.31;84.08;102148.69;693686;28;844;-65
2021/06/05 00:07:48;;;;;;;38.95;34.50;;;;;;;15.24;83.33;102144.56;693606;28;910;-63
2021/06/05 00:08:13;;;;;;;40.60;34.30;;;;;;;15.25;83.67;102144.50;693284;28;1230;-65
2021/06/05 00:08:58;;;;;;;41.00;34.97;;;;;;;15.26;84.01;102143.56;692965;28;952;-64
2021/06/05 00:09:20;;;;;;;39.05;33.85;;;;;;;15.05;83.06;102142.66;692921;28;1628;-64
2021/06/05 00:09:41;;;;;;;38.95;33.90;;;;;;;15.14;82.85;102137.00;693312;28;971;-63
2021/06/05 00:10:05;;;;;;;36.65;32.70;;;;;;;15.13;82.87;102142.34;693545;28;1001;-64
2021/06/05 00:10:31;;;;;;;39.53;34.25;;;;;;;15.11;83.28;102136.25;693457;28;1261;-64
2021/06/05 00:10:59;;;;;;;38.53;33.28;;;;;;;15.11;83.18;102139.75;693554;28;1073;-64
2021/06/05 00:11:23;;;;;;;39.83;33.72;;;;;;;15.07;83.29;102138.16;693520;28;1989;-63
2021/06/05 00:11:43;;;;;;;39.20;33.65;;;;;;;15.12;83.81;102130.00;693491;28;973;-64
2021/06/05 00:12:08;;;;;;;40.30;33.45;;;;;;;15.12;83.56;102130.84;693644;28;1006;-64
2021/06/05 00:12:29;;;;;;;39.83;33.88;;;;;;;15.14;84.26;102139.66;693436;28;1115;-63
2021/06/05 00:12:49;;;;;;;41.30;34.83;;;;;;;15.17;83.91;102134.22;693737;28;816;-64
2021/06/05 00:13:16;;;;;;;41.17;34.93;;;;;;;15.17;83.83;102131.56;693731;28;847;-63
2021/06/05 00:13:40;;;;;;;38.38;33.58;;;;;;;15.18;83.95;102135.94;693616;28;1054;-63
2021/06/05 00:14:04;;;;;;;37.95;33.05;;;;;;;15.10;83.34;102135.34;693664;28;878;-64
2021/06/05 00:14:24;;;;;;;36.72;32.17;;;;;;;15.13;83.18;102129.91;693462;28;1010;-63
2021/06/05 00:14:48;;;;;;;37.73;31.47;;;;;;;15.15;83.55;102132.53;693602;28;908;-64
2021/06/05 00:15:14;;;;;;;39.92;32.90;;;;;;;15.08;83.44;102141.69;693622;28;942;-64
2021/06/05 00:15:38;;;;;;;37.20;31.98;;;;;;;15.04;83.47;102142.72;693508;28;1982;-64
2021/06/05 00:16:00;;;;;;;36.45;32.38;;;;;;;14.98;83.40;102143.81;693653;28;918;-64
2021/06/05 00:16:24;;;;;;;36.83;31.60;;;;;;;15.01;83.58;102134.88;693557;28;1038;-64
2021/06/05 00:16:47;;;;;;;37.40;31.33;;;;;;;15.01;83.78;102135.75;693615;28;871;-63
2021/06/05 00:17:10;;;;;;;38.42;32.20;;;;;;;15.03;84.25;102139.19;693406;28;2030;-63
2021/06/05 00:17:31;;;;;;;37.70;32.17;;;;;;;15.03;83.67;102139.19;693550;28;1021;-63
2021/06/05 00:17:53;;;;;;;39.03;32.00;;;;;;;15.06;84.00;102139.06;693501;28;968;-64
2021/06/05 00:18:14;;;;;;;38.65;31.27;;;;;;;15.04;83.52;102138.28;693693;28;1033;-64
2021/06/05 00:18:35;;;;;;;36.30;31.35;;;;;;;15.06;84.04;102139.06;693174;28;961;-64
2021/06/05 00:18:56;;;;;;;36.83;31.63;;;;;;;15.09;83.81;102128.31;693613;28;857;-64
2021/06/05 00:19:19;;;;;;;37.63;31.23;;;;;;;15.05;83.92;102142.66;693692;28;811;-65
2021/06/05 00:19:42;;;;;;;36.10;30.83;;;;;;;15.02;83.88;102140.13;693510;28;918;-64
2021/06/05 00:20:07;;;;;;;35.20;29.55;;;;;;;15.00;83.45;102143.75;695566;28;1466;-64
2021/06/05 00:20:30;;;;;;;35.63;29.27;;;;;;;15.02;83.62;102136.59;693432;28;1300;-64
2021/06/05 00:20:51;;;;;;;34.00;30.00;;;;;;;15.03;83.46;102135.66;693541;28;909;-64
2021/06/05 00:21:12;;;;;;;34.80;29.92;;;;;;;14.98;83.67;102141.19;693677;28;906;-64
2021/06/05 00:21:36;;;;;;;35.08;30.15;;;;;;;14.99;83.84;102142.91;693549;28;1006;-63
2021/06/05 00:21:59;;;;;;;37.78;30.50;;;;;;;15.03;84.47;102139.19;693625;28;875;-63
2021/06/05 00:22:20;;;;;;;36.75;30.15;;;;;;;15.06;84.17;102132.91;693737;28;919;-63
2021/06/05 00:22:46;;;;;;;35.47;30.25;;;;;;;15.06;84.14;102139.06;693646;28;975;-63
2021/06/05 00:23:10;;;;;;;35.00;29.98;;;;;;;15.02;83.65;102137.47;693696;28;953;-63
2021/06/05 00:23:30;;;;;;;35.47;29.73;;;;;;;15.04;83.95;102138.28;693574;28;898;-64
2021/06/05 00:23:52;;;;;;;35.25;29.60;;;;;;;15.07;83.76;102135.50;693612;28;1054;-64
2021/06/05 00:24:13;;;;;;;34.95;28.63;;;;;;;15.06;83.93;102139.06;693589;28;833;-64
2021/06/05 00:24:33;;;;;;;34.53;28.80;;;;;;;15.05;83.67;102137.34;693671;28;808;-64
2021/06/05 00:24:54;;;;;;;33.17;28.53;;;;;;;15.10;83.77;102135.34;693525;28;995;-64
2021/06/05 00:25:18;;;;;;;33.03;28.67;;;;;;;15.12;83.45;102133.50;693624;28;875;-63
2021/06/05 00:25:39;;;;;;;34.15;28.40;;;;;;;15.14;84.07;102136.09;693621;28;1041;-64
2021/06/05 00:26:00;;;;;;;33.53;27.85;;;;;;;15.16;83.89;102136.91;693719;28;905;-63
2021/06/05 00:26:23;;;;;;;34.80;28.20;;;;;;;15.10;83.73;102137.16;693652;28;916;-63
2021/06/05 00:26:44;;;;;;;33.33;27.77;;;;;;;15.09;83.84;102130.97;693725;28;816;-63
2021/06/05 00:27:05;;;;;;;31.75;27.13;;;;;;;15.02;83.33;102134.81;693497;28;862;-63
2021/06/05 00:27:31;;;;;;;31.63;26.30;;;;;;;15.10;83.58;102135.34;693469;28;916;-63
2021/06/05 00:27:53;;;;;;;31.52;25.70;;;;;;;15.10;83.27;102135.34;693146;28;1017;-63
2021/06/05 00:28:14;;;;;;;31.70;26.60;;;;;;;15.12;83.65;102137.97;693338;28;1041;-63
2021/06/05 00:28:34;;;;;;;32.67;26.58;;;;;;;15.09;83.43;102133.63;692938;28;970;-63
2021/06/05 00:28:55;;;;;;;32.83;26.43;;;;;;;15.07;83.13;102137.28;693358;28;920;-63
2021/06/05 00:29:15;;;;;;;30.87;25.63;;;;;;;15.09;83.42;102133.63;693489;28;911;-64
2021/06/05 00:29:35;;;;;;;32.20;26.60;;;;;;;15.11;83.18;102137.09;693517;28;877;-63
2021/06/05 00:29:55;;;;;;;31.40;25.80;;;;;;;15.11;82.88;102126.47;693639;28;867;-63
2021/06/05 00:30:17;;;;;;;31.83;25.58;;;;;;;15.05;82.78;102132.03;693296;28;1340;-64
2021/06/05 00:30:37;;;;;;;31.00;25.55;;;;;;;15.08;83.46;102134.56;693236;28;1308;-64
2021/06/05 00:31:01;;;;;;;31.03;25.30;;;;;;;15.01;83.25;102135.75;690589;28;883;-63
2021/06/05 00:31:21;;;;;;;30.75;25.33;;;;;;;15.04;83.09;102130.31;690608;28;1915;-63
2021/06/05 00:31:47;;;;;;;30.63;24.67;;;;;;;15.03;82.88;102133.88;690569;28;906;-64
2021/06/05 00:32:07;;;;;;;29.20;24.52;;;;;;;14.98;82.93;102130.56;692147;28;915;-64
2021/06/05 00:32:28;;;;;;;32.17;25.00;;;;;;;15.00;82.98;102123.38;693404;28;800;-63
2021/06/05 00:32:48;;;;;;;32.77;24.90;;;;;;;14.96;83.13;102127.09;693552;28;990;-63
2021/06/05 00:33:10;;;;;;;31.70;24.87;;;;;;;15.01;83.16;102129.56;693385;28;879;-63
2021/06/05 00:33:31;;;;;;;29.08;23.67;;;;;;;15.02;83.06;102126.84;693391;28;895;-64
2021/06/05 00:33:51;;;;;;;30.27;23.80;;;;;;;15.04;82.87;102127.66;693255;28;995;-63
2021/06/05 00:34:12;;;;;;;29.95;23.58;;;;;;;14.97;82.74;102123.53;693292;28;1077;-64
2021/06/05 00:34:35;;;;;;;31.65;24.02;;;;;;;15.01;83.62;102121.59;693412;28;954;-63
2021/06/05 00:34:56;;;;;;;30.83;24.13;;;;;;;15.01;83.51;102125.13;693548;28;725;-64
2021/06/05 00:35:16;;;;;;;29.90;23.33;;;;;;;14.95;83.34;102126.22;693533;28;899;-64
2021/06/05 00:35:38;;;;;;;30.93;23.87;;;;;;;14.96;83.31;102132.38;693666;28;852;-64
2021/06/05 00:36:01;;;;;;;30.30;23.23;;;;;;;14.98;83.64;102132.34;693586;28;879;-63
2021/06/05 00:36:24;;;;;;;30.77;23.65;;;;;;;14.94;83.92;102128.94;693651;28;875;-63
2021/06/05 00:36:45;;;;;;;33.20;24.42;;;;;;;14.91;83.79;102129.06;693600;28;970;-63
2021/06/05 00:37:05;;;;;;;31.65;24.20;;;;;;;14.94;83.33;102134.25;693518;28;898;-63
2021/06/05 00:37:25;;;;;;;29.90;23.70;;;;;;;14.90;83.27;102132.63;693558;28;935;-63
2021/06/05 00:37:48;;;;;;;31.90;23.50;;;;;;;14.90;83.22;102132.63;693608;28;913;-63
2021/06/05 00:38:09;;;;;;;31.25;23.77;;;;;;;14.89;83.37;102138.88;693579;28;1005;-64
2021/06/05 00:38:29;;;;;;;30.40;23.33;;;;;;;14.93;83.74;102132.50;692939;28;887;-63
2021/06/05 00:38:54;;;;;;;31.70;23.97;;;;;;;14.88;83.82;102139.81;693243;28;1002;-63
2021/06/05 00:39:14;;;;;;;28.85;22.75;;;;;;;14.88;83.55;102139.81;693408;28;860;-63
2021/06/05 00:39:34;;;;;;;29.60;22.53;;;;;;;14.94;84.00;102134.25;693227;28;804;-62
2021/06/05 00:39:55;;;;;;;31.25;23.33;;;;;;;14.95;83.66;102131.53;693375;28;796;-62
2021/06/05 00:40:18;;;;;;;29.90;22.57;;;;;;;14.93;83.15;102138.72;693412;28;990;-62
2021/06/05 00:40:43;;;;;;;30.27;21.88;;;;;;;14.92;83.33;102125.47;693401;28;2063;-62
2021/06/05 00:41:08;;;;;;;28.88;21.42;;;;;;;14.98;83.83;102130.56;693555;28;1021;-63
2021/06/05 00:41:31;;;;;;;29.25;21.70;;;;;;;14.95;83.06;102135.97;693449;28;935;-63
2021/06/05 00:41:54;;;;;;;29.27;21.95;;;;;;;14.94;83.05;102128.94;693583;28;859;-63
2021/06/05 00:42:15;;;;;;;29.48;21.33;;;;;;;15.00;83.48;102133.13;693304;28;1354;-63
2021/06/05 00:42:35;;;;;;;29.33;21.65;;;;;;;15.03;83.42;102139.19;693586;28;800;-63
2021/06/05 00:42:57;;;;;;;31.23;22.33;;;;;;;15.04;83.49;102135.63;693532;28;982;-63
2021/06/05 00:43:21;;;;;;;29.00;21.90;;;;;;;15.01;83.18;102138.41;693469;28;907;-63
2021/06/05 00:43:49;;;;;;;29.77;21.58;;;;;;;14.97;83.35;102134.16;693466;28;1886;-63
2021/06/05 00:44:12;;;;;;;29.13;21.08;;;;;;;14.98;83.10;102130.56;693473;28;950;-63
2021/06/05 00:44:32;;;;;;;29.35;21.30;;;;;;;14.99;83.05;102136.72;693580;28;1034;-63
2021/06/05 00:44:52;;;;;;;30.43;21.80;;;;;;;15.01;83.58;102133.09;693679;28;811;-64
2021/06/05 00:45:17;;;;;;;31.77;22.33;;;;;;;15.01;83.17;102135.75;693467;28;1033;-64
2021/06/05 00:45:41;;;;;;;30.92;21.98;;;;;;;15.02;82.97;102136.59;693625;28;849;-63
2021/06/05 00:46:01;;;;;;;30.70;21.80;;;;;;;14.93;83.19;102132.50;693451;28;891;-63
2021/06/05 00:46:25;;;;;;;30.60;22.17;;;;;;;14.92;82.99;102141.41;693665;28;859;-64
2021/06/05 00:46:45;;;;;;;27.60;21.35;;;;;;;14.85;83.10;102137.28;693647;28;869;-63
2021/06/05 00:47:08;;;;;;;28.90;21.73;;;;;;;14.83;83.50;102134.69;693766;28;998;-63
2021/06/05 00:47:29;;;;;;;28.98;21.30;;;;;;;14.85;83.61;102132.81;693627;28;880;-63
2021/06/05 00:47:52;;;;;;;29.90;21.70;;;;;;;14.93;84.08;102132.50;693389;28;1026;-63
2021/06/05 00:48:15;;;;;;;32.50;22.23;;;;;;;14.93;83.79;102128.09;693495;28;1018;-63
2021/06/05 00:48:35;;;;;;;30.88;22.00;;;;;;;14.88;84.04;102138.00;693135;28;939;-64
2021/06/05 00:48:56;;;;;;;29.20;21.25;;;;;;;14.89;83.82;102130.91;693375;28;995;-63
2021/06/05 00:49:17;;;;;;;30.23;21.50;;;;;;;14.88;83.44;102134.50;693287;28;947;-63
2021/06/05 00:49:40;;;;;;;30.75;20.80;;;;;;;14.94;83.60;102128.94;692969;28;1633;-63
2021/06/05 00:50:01;;;;;;;29.92;21.08;;;;;;;14.92;83.21;102130.78;693534;28;821;-63
2021/06/05 00:50:22;;;;;;;29.98;21.05;;;;;;;14.90;83.06;102135.28;693521;28;1260;-64
2021/06/05 00:50:44;;;;;;;30.85;21.48;;;;;;;14.89;83.20;102125.59;693493;28;887;-64
2021/06/05 00:51:06;;;;;;;28.90;21.33;;;;;;;14.89;83.31;102131.75;693603;28;890;-64
2021/06/05 00:51:46;;;;;;;29.42;20.95;;;;;;;14.90;83.49;102133.53;695824;28;1971;-64
2021/06/05 00:52:06;;;;;;;29.45;21.15;;;;;;;14.84;83.24;102132.91;695956;28;985;-64
2021/06/05 00:52:28;;;;;;;29.57;20.70;;;;;;;14.89;83.57;102136.22;696012;28;836;-64
2021/06/05 00:52:50;;;;;;;27.90;20.85;;;;;;;14.84;83.36;102132.91;696131;28;883;-64
2021/06/05 00:53:12;;;;;;;29.27;20.95;;;;;;;14.80;83.07;102131.28;695670;28;1018;-64
2021/06/05 00:53:33;;;;;;;27.00;20.02;;;;;;;14.79;83.35;102134.84;693647;28;808;-64
2021/06/05 00:53:53;;;;;;;26.52;19.45;;;;;;;14.79;83.06;102133.06;693313;28;1415;-64
2021/06/05 00:54:15;;;;;;;25.52;19.35;;;;;;;14.87;83.19;102133.63;693456;28;1033;-62
2021/06/05 00:54:36;;;;;;;27.17;19.88;;;;;;;14.90;83.25;102135.28;693639;28;812;-63
2021/06/05 00:55:00;;;;;;;28.30;20.97;;;;;;;14.88;83.44;102129.19;693316;28;1303;-63
2021/06/05 00:55:24;;;;;;;26.95;20.50;;;;;;;14.82;82.91;102134.72;693395;28;907;-63
2021/06/05 00:55:47;;;;;;;27.60;20.30;;;;;;;14.86;83.32;102131.03;693261;28;1101;-63
2021/06/05 00:56:12;;;;;;;28.33;20.73;;;;;;;14.87;83.42;102133.63;693212;28;1093;-63
2021/06/05 00:56:33;;;;;;;27.23;20.90;;;;;;;14.90;83.22;102124.66;693383;28;926;-63
2021/06/05 00:56:56;;;;;;;29.00;21.10;;;;;;;14.91;83.57;102129.06;693369;28;1026;-63
2021/06/05 00:57:16;;;;;;;28.63;20.70;;;;;;;14.93;83.35;102137.81;693443;28;1403;-63
2021/06/05 00:57:37;;;;;;;27.07;19.77;;;;;;;14.94;83.32;102128.94;693592;28;993;-63
2021/06/05 00:57:58;;;;;;;26.63;19.90;;;;;;;14.92;83.33;102128.13;693155;28;1486;-63
2021/06/05 00:58:19;;;;;;;28.13;20.30;;;;;;;14.91;83.28;102134.38;693349;28;805;-63
2021/06/05 00:58:42;;;;;;;27.10;19.77;;;;;;;14.89;83.37;102131.75;692808;28;915;-65
2021/06/05 00:59:03;;;;;;;28.50;20.08;;;;;;;14.87;83.24;102132.78;693372;28;793;-64
2021/06/05 00:59:24;;;;;;;28.98;20.25;;;;;;;14.89;83.35;102126.47;693413;28;828;-64
2021/06/05 00:59:44;;;;;;;27.35;19.45;;;;;;;14.84;83.08;102128.44;693290;28;989;-64
2021/06/05 01:00:24;;;;;;;27.23;19.60;;;;;;;14.82;82.95;102129.41;693492;28;871;-64
2021/06/05 01:00:52;;;;;;;29.13;19.45;;;;;;;14.79;83.28;102124.22;693503;28;871;-64
2021/06/05 01:01:16;;;;;;;27.58;19.63;;;;;;;14.82;83.43;102129.41;693647;28;886;-64
2021/06/05 01:01:37;;;;;;;27.85;20.02;;;;;;;14.81;83.29;102123.25;693405;28;1090;-64
2021/06/05 01:01:58;;;;;;;27.10;19.90;;;;;;;14.85;83.01;102116.03;693531;28;907;-64
2021/06/05 01:02:18;;;;;;;25.45;19.67;;;;;;;14.87;82.77;102128.31;693513;28;836;-64
2021/06/05 01:02:42;;;;;;;24.77;19.13;;;;;;;14.90;82.74;102122.00;693395;28;1116;-64
2021/06/05 01:03:04;;;;;;;26.95;19.83;;;;;;;14.94;82.53;102123.66;693573;28;832;-64
2021/06/05 01:03:25;;;;;;;27.05;19.13;;;;;;;14.98;82.18;102125.25;693606;28;741;-64
2021/06/05 01:03:45;;;;;;;24.88;18.67;;;;;;;14.99;82.09;102126.97;693562;28;976;-64
2021/06/05 01:04:10;;;;;;;28.77;20.07;;;;;;;14.94;82.59;102123.66;693432;28;1026;-64
2021/06/05 01:04:30;;;;;;;28.92;19.95;;;;;;;14.97;82.64;102126.19;693569;28;973;-64
2021/06/05 01:04:51;;;;;;;28.23;19.77;;;;;;;14.93;83.08;102119.22;693603;28;891;-64
2021/06/05 01:05:12;;;;;;;28.73;20.08;;;;;;;14.95;83.06;102125.38;693425;28;938;-64
2021/06/05 01:05:35;;;;;;;26.88;19.63;;;;;;;14.94;82.59;102126.31;693589;28;1000;-64
2021/06/05 01:06:03;;;;;;;26.80;19.63;;;;;;;14.94;82.91;102121.84;693456;28;998;-64
2021/06/05 01:06:29;;;;;;;28.13;20.10;;;;;;;14.88;82.73;102123.88;693558;28;934;-64
2021/06/05 01:06:58;;;;;;;26.27;19.33;;;;;;;14.86;83.08;102120.41;693387;28;1011;-64
2021/06/05 01:07:23;;;;;;;25.67;19.65;;;;;;;14.90;83.43;102125.56;694146;28;1057;-63
2021/06/05 01:07:48;;;;;;;30.17;20.65;;;;;;;14.89;83.19;102128.25;693542;28;794;-63
2021/06/05 01:08:14;;;;;;;29.17;20.35;;;;;;;14.81;83.53;102130.34;693510;28;954;-64
2021/06/05 01:09:07;;;;;;;26.80;19.52;;;;;;;14.87;83.30;102123.03;693098;28;910;-64
2021/06/05 01:09:33;;;;;;;28.90;19.80;;;;;;;14.91;83.81;102123.75;693588;28;855;-63
2021/06/05 01:10:03;;;;;;;27.20;19.40;;;;;;;14.92;83.40;102125.47;693485;28;879;-63
2021/06/05 01:10:29;;;;;;;27.85;19.55;;;;;;;14.93;83.53;102128.09;693355;28;1364;-63
2021/06/05 01:10:56;;;;;;;26.40;19.48;;;;;;;14.95;83.57;102122.72;693559;28;1026;-63
2021/06/05 01:11:27;;;;;;;28.65;19.73;;;;;;;14.96;83.44;102127.09;693549;28;1926;-63
2021/06/05 01:12:00;;;;;;;26.02;18.52;;;;;;;14.92;83.27;102125.47;693614;28;871;-64
2021/06/05 01:12:43;;;;;;;28.67;19.02;;;;;;;14.93;83.24;102127.19;693386;28;1049;-64
2021/06/05 01:13:30;;;;;;;28.17;19.48;;;;;;;14.96;83.10;102127.94;693437;28;836;-64
2021/06/05 01:14:23;;;;;;;26.08;18.92;;;;;;;15.04;83.29;102125.00;693594;28;868;-64
2021/06/05 01:14:53;;;;;;;28.88;19.52;;;;;;;15.09;82.88;102125.66;690342;28;1241;-63
2021/06/05 01:15:24;;;;;;;23.70;18.02;;;;;;;15.09;82.40;102123.00;693478;28;986;-63
2021/06/05 01:15:55;;;;;;;25.85;18.70;;;;;;;15.03;82.69;102128.56;693575;28;907;-64
2021/06/05 01:16:18;;;;;;;24.92;18.77;;;;;;;14.99;82.85;102129.63;693494;28;1054;-64
2021/06/05 01:16:43;;;;;;;26.25;18.42;;;;;;;14.94;82.69;102129.81;693599;28;837;-63
2021/06/05 01:17:09;;;;;;;26.00;18.38;;;;;;;15.00;82.64;102128.69;693426;28;892;-64
2021/06/05 01:17:34;;;;;;;25.08;17.95;;;;;;;15.03;82.66;102123.25;693508;28;1155;-64
2021/06/05 01:18:03;;;;;;;24.75;18.20;;;;;;;15.03;82.54;102120.59;693472;28;935;-63
2021/06/05 01:18:48;;;;;;;24.00;17.92;;;;;;;15.06;82.79;102120.47;693267;28;915;-64
2021/06/05 01:19:28;;;;;;;24.48;17.40;;;;;;;14.99;82.63;102121.66;693519;28;966;-63
2021/06/05 01:19:59;;;;;;;24.80;17.70;;;;;;;15.00;82.64;102118.06;693272;28;1268;-63
2021/06/05 01:20:38;;;;;;;24.70;17.67;;;;;;;14.97;82.34;102120.88;693437;28;1300;-63
2021/06/05 01:21:26;;;;;;;25.05;17.33;;;;;;;14.87;82.42;102119.50;693644;28;863;-63
2021/06/05 01:22:13;;;;;;;24.75;17.45;;;;;;;14.87;83.53;102111.53;693499;28;1105;-63
2021/06/05 01:22:55;;;;;;;23.60;17.25;;;;;;;14.85;83.22;102113.38;693450;28;1133;-63
2021/06/05 01:23:54;;;;;;;23.73;17.70;;;;;;;14.83;83.26;102109.91;693192;28;854;-63
2021/06/05 01:24:27;;;;;;;24.23;17.38;;;;;;;14.85;83.33;102108.94;693210;28;843;-63
2021/06/05 01:25:05;;;;;;;23.30;16.95;;;;;;;14.85;83.00;102108.94;693197;28;1881;-63
2021/06/05 01:25:55;;;;;;;24.35;16.55;;;;;;;14.91;83.32;102107.84;693499;28;987;-63
2021/06/05 01:26:22;;;;;;;23.58;17.35;;;;;;;14.92;82.95;102109.56;690326;28;1317;-63
2021/06/05 01:26:52;;;;;;;21.85;16.65;;;;;;;14.88;83.28;102107.94;687637;28;1218;-63
2021/06/05 01:27:18;;;;;;;21.65;16.00;;;;;;;14.87;83.12;102101.78;693402;28;836;-63
2021/06/05 01:27:44;;;;;;;23.23;16.33;;;;;;;14.92;82.68;102106.91;693294;28;1030;-63
2021/06/05 01:28:22;;;;;;;21.90;16.05;;;;;;;14.94;82.88;102107.72;693289;28;861;-63
2021/06/05 01:28:55;;;;;;;22.13;16.17;;;;;;;14.90;83.02;102099.00;692988;28;1130;-63
2021/06/05 01:29:18;;;;;;;23.58;16.85;;;;;;;14.88;82.81;102105.31;693305;28;924;-64
2021/06/05 01:29:43;;;;;;;22.98;16.20;;;;;;;14.88;83.21;102108.81;693138;28;1062;-64
2021/06/05 01:30:20;;;;;;;23.40;16.67;;;;;;;14.91;83.11;102102.53;693299;28;881;-63
2021/06/05 01:30:48;;;;;;;22.23;16.40;;;;;;;14.92;83.15;102104.25;692996;28;1729;-63
2021/06/05 01:31:13;;;;;;;21.55;16.23;;;;;;;14.93;82.94;102100.66;693401;28;1955;-63
2021/06/05 01:31:39;;;;;;;21.33;15.85;;;;;;;14.92;82.99;102106.91;693341;28;1112;-63
2021/06/05 01:32:03;;;;;;;21.75;15.88;;;;;;;14.83;83.42;102096.63;693531;28;1026;-63
2021/06/05 01:32:26;;;;;;;22.60;15.82;;;;;;;14.77;83.08;102105.72;693238;28;1722;-63
2021/06/05 01:32:46;;;;;;;22.95;16.55;;;;;;;14.78;83.72;102101.28;693626;28;862;-63
2021/06/05 01:33:12;;;;;;;23.30;16.37;;;;;;;14.75;83.47;102104.91;693519;28;939;-63
2021/06/05 01:33:35;;;;;;;21.85;15.45;;;;;;;14.80;83.16;102104.75;693522;28;1235;-63
2021/06/05 01:33:56;;;;;;;22.20;15.93;;;;;;;14.84;83.45;102101.03;693546;28;820;-63
2021/06/05 01:34:16;;;;;;;22.73;15.85;;;;;;;14.83;83.59;102105.50;693360;28;895;-63
2021/06/05 01:34:47;;;;;;;21.92;15.63;;;;;;;14.84;83.47;102106.34;693615;28;844;-64
2021/06/05 01:35:10;;;;;;;22.33;16.02;;;;;;;14.87;83.76;102104.44;693381;28;962;-64
2021/06/05 01:35:33;;;;;;;21.70;15.93;;;;;;;14.87;83.19;102106.22;693462;28;2098;-63
2021/06/05 01:35:54;;;;;;;22.13;15.50;;;;;;;14.91;83.27;102102.53;693098;28;1834;-64
2021/06/05 01:36:18;;;;;;;21.40;15.20;;;;;;;14.92;83.33;102106.91;693277;28;936;-63
2021/06/05 01:36:49;;;;;;;22.33;15.63;;;;;;;14.91;83.10;102107.84;693305;28;1067;-63
2021/06/05 01:37:11;;;;;;;22.45;15.95;;;;;;;14.91;82.75;102106.03;693295;28;872;-63
2021/06/05 01:37:37;;;;;;;21.05;15.80;;;;;;;14.81;83.24;102111.78;693434;28;915;-63
2021/06/05 01:37:58;;;;;;;20.65;15.40;;;;;;;14.84;83.34;102111.66;693353;28;1305;-63
2021/06/05 01:38:20;;;;;;;20.40;15.02;;;;;;;14.84;83.20;102103.69;693510;28;951;-63
2021/06/05 01:38:48;;;;;;;20.83;15.32;;;;;;;14.89;83.19;102109.66;692993;28;873;-63
2021/06/05 01:39:13;;;;;;;22.10;15.23;;;;;;;14.93;83.35;102103.31;693581;28;863;-64
2021/06/05 01:39:37;;;;;;;20.40;14.57;;;;;;;14.92;82.78;102104.25;693448;28;816;-63
2021/06/05 01:39:57;;;;;;;20.15;14.70;;;;;;;14.89;82.99;102104.38;693525;28;896;-64
2021/06/05 01:40:18;;;;;;;20.85;14.43;;;;;;;14.90;82.85;102106.09;693402;28;1252;-63
2021/06/05 01:40:41;;;;;;;22.10;14.88;;;;;;;14.88;83.20;102107.94;693477;28;951;-63
2021/06/05 01:41:02;;;;;;;22.27;15.20;;;;;;;14.88;83.04;102106.16;693516;28;1113;-63
2021/06/05 01:41:24;;;;;;;21.23;15.27;;;;;;;14.91;82.93;102110.50;693350;28;870;-63
2021/06/05 01:41:47;;;;;;;21.25;15.02;;;;;;;14.92;83.15;102099.78;693509;28;900;-63
2021/06/05 01:42:16;;;;;;;21.70;14.93;;;;;;;14.87;82.83;102109.75;693470;28;1009;-63
2021/06/05 01:42:37;;;;;;;22.60;15.07;;;;;;;14.86;83.18;102104.47;693506;28;926;-63
2021/06/05 01:43:04;;;;;;;21.90;14.88;;;;;;;14.88;82.80;102106.16;693578;28;883;-63
2021/06/05 01:43:27;;;;;;;20.75;14.70;;;;;;;14.93;82.85;102111.28;693369;28;939;-63
2021/06/05 01:43:49;;;;;;;20.63;14.70;;;;;;;14.95;82.94;102102.34;693487;28;1031;-63
2021/06/05 01:44:13;;;;;;;19.48;14.50;;;;;;;14.96;82.89;102105.84;693426;28;823;-62
2021/06/05 01:44:35;;;;;;;19.42;14.18;;;;;;;14.91;82.96;102102.53;693387;28;1094;-64
2021/06/05 01:44:58;;;;;;;21.13;14.60;;;;;;;14.95;82.69;102109.44;693563;28;821;-64
2021/06/05 01:45:25;;;;;;;20.65;14.15;;;;;;;14.95;82.72;102104.97;693541;28;996;-63
2021/06/05 01:45:47;;;;;;;22.42;15.13;;;;;;;14.93;82.65;102108.63;693560;28;974;-63
2021/06/05 01:46:09;;;;;;;20.65;14.98;;;;;;;14.95;82.65;102104.13;693326;28;849;-63
2021/06/05 01:46:33;;;;;;;21.17;15.20;;;;;;;14.95;83.12;102101.47;693406;28;980;-63
2021/06/05 01:46:53;;;;;;;21.30;14.73;;;;;;;14.97;83.10;102102.28;693455;28;808;-63
2021/06/05 01:47:14;;;;;;;22.55;15.23;;;;;;;14.98;83.06;102104.00;693576;28;802;-63
2021/06/05 01:47:38;;;;;;;21.00;15.02;;;;;;;14.95;82.74;102101.47;693482;28;896;-63
2021/06/05 01:47:59;;;;;;;21.15;14.95;;;;;;;14.97;82.74;102107.59;693484;28;1011;-63
2021/06/05 01:48:20;;;;;;;21.03;14.83;;;;;;;14.94;83.20;102097.97;693402;28;853;-63
2021/06/05 01:48:43;;;;;;;20.33;14.75;;;;;;;14.93;83.04;102103.31;692987;28;915;-63
2021/06/05 01:49:05;;;;;;;21.40;14.68;;;;;;;14.92;82.63;102098.94;693538;28;970;-63
2021/06/05 01:49:26;;;;;;;22.73;15.18;;;;;;;14.96;83.02;102100.53;693558;28;1034;-63
2021/06/05 01:49:47;;;;;;;22.27;14.70;;;;;;;14.95;82.49;102104.13;693412;28;883;-64
2021/06/05 01:50:13;;;;;;;21.13;14.98;;;;;;;14.95;82.87;102099.69;693469;28;1334;-63
2021/06/05 01:50:36;;;;;;;21.63;15.07;;;;;;;14.96;82.64;102101.41;692965;28;955;-63
2021/06/05 01:51:07;;;;;;;22.05;15.18;;;;;;;14.92;83.08;102104.25;693608;28;824;-63
2021/06/05 01:51:28;;;;;;;22.25;15.35;;;;;;;14.89;83.21;102101.72;693316;28;1914;-63
2021/06/05 01:52:03;;;;;;;22.58;15.20;;;;;;;14.90;83.05;102096.34;693583;28;962;-64
2021/06/05 01:52:30;;;;;;;22.48;15.27;;;;;;;14.93;83.27;102105.97;693228;28;969;-63
2021/06/05 01:52:54;;;;;;;21.30;14.98;;;;;;;14.94;83.38;102097.09;693447;28;924;-63
2021/06/05 01:53:22;;;;;;;22.10;14.73;;;;;;;14.95;83.18;102101.47;693386;28;1097;-63
2021/06/05 01:53:49;;;;;;;22.77;15.18;;;;;;;14.88;83.43;102100.00;693471;28;1098;-63
2021/06/05 01:54:17;;;;;;;22.73;15.45;;;;;;;14.92;83.12;102094.50;693421;28;856;-63
2021/06/05 01:54:46;;;;;;;22.17;14.88;;;;;;;14.96;83.36;102097.88;693377;28;845;-63
2021/06/05 01:55:13;;;;;;;21.20;14.82;;;;;;;15.00;83.14;102101.28;693255;28;824;-63
2021/06/05 01:55:43;;;;;;;21.73;15.10;;;;;;;15.01;82.85;102103.03;693283;28;1059;-63
2021/06/05 01:56:09;;;;;;;21.42;14.63;;;;;;;15.05;83.05;102094.00;690357;28;887;-63
2021/06/05 01:56:35;;;;;;;21.85;15.00;;;;;;;15.03;82.79;102096.69;690519;28;888;-62